Time;durP1;ratioP1;P1;durP2;ratioP2;P2;SDS_P1;SDS_P2;PMS_P1;PMS_P2;Temp;Humidity;BMP_temperature;BMP_pressure;BME280_temperature;BME280_humidity;BME280_pressure;Samples;Min_cycle;Max_cycle;Signal;HPM_P1;HPM_P2
2021/08/16 00:01:22;;;;;;;7.43;4.25;;;18.30;99.90;;;;;;5075107;28;20217;-88
2021/08/16 00:03:49;;;;;;;10.82;5.10;;;18.50;99.90;;;;;;5075577;28;20261;-89
2021/08/16 00:06:16;;;;;;;8.88;4.72;;;18.20;99.90;;;;;;5074208;28;20222;-88
2021/08/16 00:08:43;;;;;;;9.60;4.68;;;18.10;99.90;;;;;;5075909;28;20301;-88
2021/08/16 00:11:11;;;;;;;9.75;4.60;;;18.20;99.90;;;;;;5082498;28;20660;-88
2021/08/16 00:13:38;;;;;;;9.95;5.38;;;18.40;99.90;;;;;;5078213;28;20232;-89
2021/08/16 00:16:07;;;;;;;10.25;5.05;;;18.10;99.90;;;;;;5073095;28;20198;-89
2021/08/16 00:18:34;;;;;;;10.60;5.22;;;18.40;99.90;;;;;;5075145;28;20227;-88
2021/08/16 00:21:01;;;;;;;9.52;4.93;;;18.30;99.90;;;;;;5074121;28;20570;-89
2021/08/16 00:23:28;;;;;;;8.05;5.22;;;18.10;99.90;;;;;;5065136;28;20246;-89
2021/08/16 00:25:55;;;;;;;9.38;5.28;;;17.90;99.90;;;;;;5068224;28;20202;-88
2021/08/16 00:28:23;;;;;;;10.55;4.38;;;17.90;99.90;;;;;;5070640;28;20229;-88
2021/08/16 00:30:50;;;;;;;11.18;4.70;;;17.90;99.90;;;;;;5065045;28;20203;-88
2021/08/16 00:33:17;;;;;;;8.43;4.90;;;18.10;99.90;;;;;;5072131;28;20692;-89
2021/08/16 00:35:44;;;;;;;9.10;4.38;;;18.00;99.90;;;;;;5071030;28;20731;-89
2021/08/16 00:38:11;;;;;;;10.40;4.18;;;17.90;99.90;;;;;;5075501;28;20194;-89
2021/08/16 00:40:38;;;;;;;7.72;4.50;;;17.80;99.90;;;;;;5071065;28;20205;-89
2021/08/16 00:43:05;;;;;;;8.60;4.30;;;17.80;99.90;;;;;;5074610;28;20234;-89
2021/08/16 00:45:33;;;;;;;7.80;4.47;;;17.60;99.90;;;;;;5073486;28;20301;-88
2021/08/16 00:48:00;;;;;;;8.80;4.25;;;17.50;99.90;;;;;;5079639;28;20232;-90
2021/08/16 00:50:27;;;;;;;6.60;4.38;;;17.40;99.90;;;;;;5077183;28;20289;-89
2021/08/16 00:52:54;;;;;;;9.45;4.50;;;17.40;99.90;;;;;;5068784;28;20226;-89
2021/08/16 00:55:21;;;;;;;8.07;4.55;;;17.40;99.90;;;;;;5070721;28;20573;-89
2021/08/16 00:57:48;;;;;;;8.48;4.80;;;17.60;99.90;;;;;;5060346;28;20201;-89
2021/08/16 01:00:16;;;;;;;8.52;4.38;;;17.60;99.90;;;;;;5075641;28;20203;-89
2021/08/16 01:02:44;;;;;;;9.43;4.07;;;17.40;99.90;;;;;;5074516;28;20222;-88
2021/08/16 01:05:13;;;;;;;8.93;4.65;;;17.50;99.90;;;;;;5069307;28;20293;-89
2021/08/16 01:07:42;;;;;;;9.75;4.53;;;17.50;99.90;;;;;;5071897;28;20222;-88
2021/08/16 01:10:10;;;;;;;8.18;4.10;;;17.50;99.90;;;;;;5070586;28;20213;-89
2021/08/16 01:12:38;;;;;;;7.35;4.43;;;17.50;99.90;;;;;;5070897;28;20855;-89
2021/08/16 01:15:07;;;;;;;7.13;3.97;;;17.40;99.90;;;;;;5070711;28;20220;-89
2021/08/16 01:17:34;;;;;;;9.20;4.47;;;17.30;99.90;;;;;;5066134;28;20202;-88
2021/08/16 01:20:04;;;;;;;9.13;4.03;;;17.30;99.90;;;;;;5069618;28;20230;-88
2021/08/16 01:22:31;;;;;;;7.03;3.97;;;17.00;99.90;;;;;;5072137;28;20583;-87
2021/08/16 01:24:58;;;;;;;7.13;4.07;;;17.10;99.90;;;;;;5068771;28;20280;-88
2021/08/16 01:27:26;;;;;;;7.25;3.97;;;17.20;99.90;;;;;;5075410;28;20225;-88
2021/08/16 01:29:53;;;;;;;8.57;3.97;;;17.20;99.90;;;;;;5072137;28;20216;-89
2021/08/16 01:32:20;;;;;;;7.78;4.55;;;17.00;99.90;;;;;;5069898;28;20202;-88
2021/08/16 01:34:47;;;;;;;7.85;4.15;;;17.00;99.90;;;;;;5071563;28;20213;-88
2021/08/16 01:37:14;;;;;;;6.47;4.03;;;17.00;99.90;;;;;;5066136;28;20298;-88
2021/08/16 01:39:41;;;;;;;10.88;4.30;;;17.10;99.90;;;;;;5070474;28;20215;-89
2021/08/16 01:42:08;;;;;;;8.90;4.80;;;17.00;99.90;;;;;;5061970;28;20198;-87
2021/08/16 01:44:36;;;;;;;5.97;4.10;;;16.90;99.90;;;;;;5072467;28;20679;-88
2021/08/16 01:47:03;;;;;;;8.30;4.25;;;16.80;99.90;;;;;;5070850;28;20210;-88
2021/08/16 01:49:30;;;;;;;6.82;3.80;;;16.80;99.90;;;;;;5069688;28;20596;-88
2021/08/16 01:51:57;;;;;;;9.73;4.80;;;16.80;99.90;;;;;;5069121;28;20281;-88
2021/08/16 01:54:24;;;;;;;6.85;4.30;;;16.90;99.90;;;;;;5081909;28;20278;-89
2021/08/16 01:56:51;;;;;;;9.68;5.13;;;17.10;99.90;;;;;;5076754;28;20281;-88
2021/08/16 01:59:18;;;;;;;8.10;4.82;;;17.20;99.90;;;;;;5075915;28;20262;-87
2021/08/16 02:01:46;;;;;;;9.75;5.00;;;17.00;99.90;;;;;;5072047;28;20198;-87
2021/08/16 02:04:13;;;;;;;7.60;4.63;;;17.20;99.90;;;;;;5069900;28;20218;-88
2021/08/16 02:06:40;;;;;;;7.07;4.32;;;17.10;99.90;;;;;;5071134;28;20301;-87
2021/08/16 02:09:07;;;;;;;8.48;4.50;;;17.10;99.90;;;;;;5068188;28;20226;-87
2021/08/16 02:11:33;;;;;;;9.57;5.00;;;17.20;99.90;;;;;;5067596;28;20221;-87
2021/08/16 02:14:00;;;;;;;7.78;4.57;;;17.20;99.90;;;;;;5069573;28;20224;-87
2021/08/16 02:16:27;;;;;;;9.35;4.35;;;17.30;99.90;;;;;;5071935;28;20198;-87
2021/08/16 02:18:55;;;;;;;9.82;4.82;;;17.20;99.90;;;;;;5076906;28;20197;-87
2021/08/16 02:21:22;;;;;;;8.93;4.65;;;17.20;99.90;;;;;;5069808;28;20577;-87
2021/08/16 02:23:49;;;;;;;9.13;4.70;;;17.10;99.90;;;;;;5081053;28;20726;-87
2021/08/16 02:26:16;;;;;;;11.00;5.05;;;17.00;99.90;;;;;;5077314;28;20280;-87
2021/08/16 02:28:43;;;;;;;9.68;4.45;;;17.00;99.90;;;;;;5078570;28;20601;-88
2021/08/16 02:31:09;;;;;;;8.18;4.72;;;17.00;99.90;;;;;;5083234;28;20205;-88
2021/08/16 02:33:36;;;;;;;9.55;4.70;;;17.00;99.90;;;;;;5073735;28;20313;-87
2021/08/16 02:36:05;;;;;;;8.57;4.65;;;17.00;99.90;;;;;;5070151;28;20216;-87
2021/08/16 02:38:31;;;;;;;11.13;4.30;;;17.10;99.90;;;;;;5067908;28;20206;-86
2021/08/16 02:40:58;;;;;;;7.82;4.60;;;17.10;99.90;;;;;;5069496;28;20194;-87
2021/08/16 02:43:28;;;;;;;7.88;4.35;;;17.20;99.90;;;;;;5070476;28;20606;-88
2021/08/16 02:45:55;;;;;;;7.47;4.68;;;17.30;99.90;;;;;;5070472;28;20214;-87
2021/08/16 02:48:21;;;;;;;8.25;4.70;;;17.30;99.90;;;;;;5069802;28;20218;-88
2021/08/16 02:50:48;;;;;;;8.13;4.53;;;17.30;99.90;;;;;;5069879;28;20229;-87
2021/08/16 02:53:17;;;;;;;8.23;4.35;;;17.30;99.90;;;;;;5071633;28;20958;-87
2021/08/16 02:55:43;;;;;;;8.10;4.47;;;17.30;99.90;;;;;;5057166;28;20222;-87
2021/08/16 02:58:10;;;;;;;9.48;4.38;;;17.40;99.90;;;;;;5066940;28;20298;-87
2021/08/16 03:00:37;;;;;;;7.00;4.43;;;17.30;99.90;;;;;;5069851;28;20210;-87
2021/08/16 03:03:04;;;;;;;9.80;4.78;;;17.30;99.90;;;;;;5071073;28;20232;-88
2021/08/16 03:05:31;;;;;;;9.75;4.38;;;17.30;99.90;;;;;;5067279;28;20201;-88
2021/08/16 03:07:57;;;;;;;9.23;5.00;;;17.30;99.90;;;;;;5070350;28;20341;-88
2021/08/16 03:10:26;;;;;;;7.25;4.13;;;17.40;99.90;;;;;;5066696;28;20209;-88
2021/08/16 03:12:53;;;;;;;7.45;4.55;;;17.40;99.90;;;;;;5070757;28;20305;-88
2021/08/16 03:15:21;;;;;;;9.15;4.70;;;17.40;99.90;;;;;;5067393;28;20293;-88
2021/08/16 03:17:48;;;;;;;12.07;5.07;;;17.50;99.90;;;;;;5082608;28;20699;-87
2021/08/16 03:20:15;;;;;;;9.25;4.13;;;17.40;99.90;;;;;;5080561;28;20206;-87
2021/08/16 03:22:41;;;;;;;7.32;4.32;;;17.60;99.90;;;;;;5068760;28;20310;-87
2021/08/16 03:25:09;;;;;;;8.48;4.10;;;17.50;99.90;;;;;;5076337;28;20281;-87
2021/08/16 03:27:38;;;;;;;7.68;4.30;;;17.60;99.90;;;;;;5074282;28;20205;-87
2021/08/16 03:30:07;;;;;;;9.63;4.22;;;17.50;99.90;;;;;;5080895;28;20207;-87
2021/08/16 03:32:33;;;;;;;6.90;3.90;;;17.50;99.90;;;;;;5072053;28;20274;-87
2021/08/16 03:35:00;;;;;;;5.63;3.92;;;17.50;99.90;;;;;;5077590;28;20205;-86
2021/08/16 03:37:32;;;;;;;6.32;4.28;;;17.50;99.90;;;;;;5073034;28;20286;-87
2021/08/16 03:39:59;;;;;;;6.78;4.25;;;17.50;99.90;;;;;;5070742;28;20203;-87
2021/08/16 03:42:25;;;;;;;9.35;4.93;;;17.50;99.90;;;;;;5072628;28;20734;-86
2021/08/16 03:44:54;;;;;;;10.63;6.00;;;17.50;99.90;;;;;;5089522;28;20580;-86
2021/08/16 03:47:20;;;;;;;6.75;4.45;;;17.40;99.90;;;;;;5076981;28;20657;-86
2021/08/16 03:49:47;;;;;;;6.75;4.32;;;17.50;99.90;;;;;;5072821;28;20695;-87
2021/08/16 03:52:14;;;;;;;7.55;4.35;;;17.20;99.90;;;;;;5068818;28;20640;-87
2021/08/16 03:54:41;;;;;;;6.95;4.18;;;17.10;99.90;;;;;;5061074;28;20203;-87
2021/08/16 03:57:08;;;;;;;6.65;4.60;;;17.10;99.90;;;;;;5061880;28;20211;-87
2021/08/16 03:59:35;;;;;;;7.75;4.35;;;16.90;99.90;;;;;;5063053;28;20281;-87
2021/08/16 04:02:03;;;;;;;7.18;5.13;;;16.90;99.90;;;;;;5060773;28;20203;-87
2021/08/16 04:04:30;;;;;;;7.65;5.03;;;16.90;99.90;;;;;;5068296;28;20199;-87
2021/08/16 04:06:57;;;;;;;7.90;5.10;;;16.80;99.90;;;;;;5075152;28;20202;-86
2021/08/16 04:09:24;;;;;;;9.70;5.70;;;17.00;99.90;;;;;;5073666;28;20759;-88
2021/08/16 04:11:50;;;;;;;7.93;5.82;;;16.80;99.90;;;;;;5073916;28;20281;-88
2021/08/16 04:14:17;;;;;;;9.65;6.03;;;16.90;99.90;;;;;;5079233;28;20300;-89
2021/08/16 04:16:44;;;;;;;9.35;7.00;;;16.80;99.90;;;;;;5069782;28;20209;-87
2021/08/16 04:19:14;;;;;;;11.27;6.30;;;16.80;99.90;;;;;;5071574;28;20285;-88
2021/08/16 04:21:41;;;;;;;10.35;5.80;;;16.90;99.90;;;;;;5072757;28;20198;-87
2021/08/16 04:24:08;;;;;;;9.83;6.17;;;17.10;99.90;;;;;;5075768;28;20279;-87
2021/08/16 04:26:34;;;;;;;12.15;7.10;;;17.10;99.90;;;;;;5074307;28;20203;-86
2021/08/16 04:29:01;;;;;;;10.38;6.55;;;17.10;99.90;;;;;;5073261;28;20641;-87
2021/08/16 04:31:28;;;;;;;9.95;6.85;;;16.90;99.90;;;;;;5071298;28;20212;-87
2021/08/16 04:33:55;;;;;;;9.55;6.35;;;16.80;99.90;;;;;;5071457;28;20232;-89
2021/08/16 04:36:23;;;;;;;8.43;6.22;;;16.90;99.90;;;;;;5066640;28;20217;-86
2021/08/16 04:38:50;;;;;;;9.25;6.50;;;17.00;99.90;;;;;;5071229;28;20213;-87
2021/08/16 04:41:17;;;;;;;9.95;7.03;;;17.00;99.90;;;;;;5067720;28;20206;-87
2021/08/16 04:43:44;;;;;;;11.03;7.23;;;16.90;99.90;;;;;;5077724;28;20605;-87
2021/08/16 04:46:11;;;;;;;10.43;7.20;;;16.90;99.90;;;;;;5076584;28;20214;-87
2021/08/16 04:48:38;;;;;;;8.68;6.45;;;16.80;99.90;;;;;;5071406;28;20636;-87
2021/08/16 04:51:05;;;;;;;9.60;7.40;;;17.00;99.90;;;;;;5073435;28;20277;-88
2021/08/16 04:53:33;;;;;;;8.85;6.45;;;17.00;99.90;;;;;;5084449;28;20247;-88
2021/08/16 04:56:00;;;;;;;11.60;7.40;;;17.10;99.90;;;;;;5090996;28;20207;-88
2021/08/16 04:58:27;;;;;;;11.10;8.77;;;17.00;99.90;;;;;;5085309;28;20209;-88
2021/08/16 05:00:53;;;;;;;9.57;7.60;;;17.20;99.90;;;;;;5075408;28;20251;-87
2021/08/16 05:03:20;;;;;;;10.02;6.90;;;17.10;99.90;;;;;;5078161;28;20236;-88
2021/08/16 05:05:52;;;;;;;10.80;7.57;;;17.10;99.90;;;;;;5065167;28;20665;-89
2021/08/16 05:08:19;;;;;;;10.60;7.00;;;17.00;99.90;;;;;;5065255;28;20207;-88
2021/08/16 05:10:48;;;;;;;12.57;7.72;;;17.10;99.90;;;;;;5064561;28;20929;-89
2021/08/16 05:13:15;;;;;;;11.25;7.47;;;17.30;99.90;;;;;;5063729;28;20218;-88
2021/08/16 05:15:43;;;;;;;10.68;7.45;;;17.20;99.90;;;;;;5075959;28;20221;-89
2021/08/16 05:18:10;;;;;;;11.93;7.68;;;17.30;99.90;;;;;;5065376;28;20206;-88
2021/08/16 05:20:37;;;;;;;9.63;7.13;;;17.20;99.90;;;;;;5061252;28;20203;-87
2021/08/16 05:23:05;;;;;;;10.07;7.57;;;17.30;99.90;;;;;;5063189;28;20230;-88
2021/08/16 05:25:33;;;;;;;10.63;7.43;;;17.30;99.90;;;;;;5057869;28;20281;-88
2021/08/16 05:28:01;;;;;;;12.25;8.00;;;17.20;99.90;;;;;;5063053;28;20194;-88
2021/08/16 05:30:28;;;;;;;14.10;9.30;;;17.20;99.90;;;;;;5071317;28;20229;-89
2021/08/16 05:32:55;;;;;;;11.43;8.25;;;17.30;99.90;;;;;;5064892;28;20221;-89
2021/08/16 05:35:22;;;;;;;11.90;7.95;;;17.20;99.90;;;;;;5062334;28;20289;-88
2021/08/16 05:37:49;;;;;;;13.40;7.88;;;17.40;99.90;;;;;;5060463;28;20201;-88
2021/08/16 05:40:16;;;;;;;12.40;8.32;;;17.50;99.90;;;;;;5064314;28;20653;-88
2021/08/16 05:42:42;;;;;;;11.93;7.85;;;17.40;99.90;;;;;;5085558;28;20220;-89
2021/08/16 05:45:12;;;;;;;12.13;8.50;;;17.40;99.90;;;;;;5074746;28;20649;-88
2021/08/16 05:47:39;;;;;;;13.00;8.93;;;17.40;99.90;;;;;;5077309;28;20748;-88
2021/08/16 05:50:07;;;;;;;15.45;9.82;;;17.50;99.90;;;;;;5078959;28;20232;-88
2021/08/16 05:52:34;;;;;;;13.85;10.00;;;17.40;99.90;;;;;;5070804;28;20336;-88
2021/08/16 05:55:01;;;;;;;14.80;9.55;;;17.40;99.90;;;;;;5070992;28;20197;-89
2021/08/16 05:57:28;;;;;;;15.07;10.68;;;17.40;99.90;;;;;;5080220;28;20230;-88
2021/08/16 05:59:55;;;;;;;17.58;10.55;;;17.30;99.90;;;;;;5067285;28;20260;-88
2021/08/16 06:02:23;;;;;;;14.43;10.63;;;17.40;99.90;;;;;;5069240;28;20682;-87
2021/08/16 06:04:50;;;;;;;14.97;9.60;;;17.40;99.90;;;;;;5069465;28;20233;-88
2021/08/16 06:07:18;;;;;;;11.63;9.35;;;17.40;99.90;;;;;;5069670;28;20293;-88
2021/08/16 06:09:45;;;;;;;13.07;9.90;;;17.50;99.90;;;;;;5069218;28;20319;-88
2021/08/16 06:12:12;;;;;;;13.20;9.20;;;17.60;99.90;;;;;;5078660;28;20204;-88
2021/08/16 06:14:39;;;;;;;16.73;9.30;;;17.70;99.90;;;;;;5067745;28;20233;-88
2021/08/16 06:17:06;;;;;;;13.18;9.38;;;17.70;99.90;;;;;;5073669;28;20198;-88
2021/08/16 06:19:34;;;;;;;11.90;8.30;;;17.80;99.90;;;;;;5066111;28;20285;-88
2021/08/16 06:22:02;;;;;;;12.23;8.40;;;17.70;99.90;;;;;;5072222;28;20284;-87
2021/08/16 06:24:29;;;;;;;11.63;7.65;;;17.90;99.90;;;;;;5082162;28;20194;-88
2021/08/16 06:26:56;;;;;;;9.63;7.32;;;17.90;99.90;;;;;;5083940;28;20289;-88
2021/08/16 06:29:23;;;;;;;9.90;6.75;;;18.00;99.90;;;;;;5074125;28;20316;-89
2021/08/16 06:31:50;;;;;;;11.15;6.88;;;18.00;99.90;;;;;;5076033;28;20289;-89
2021/08/16 06:34:17;;;;;;;10.70;7.38;;;18.10;99.90;;;;;;5070407;28;20275;-88
2021/08/16 06:36:51;;;;;;;12.05;7.93;;;18.10;99.90;;;;;;5076289;28;20249;-89
2021/08/16 06:39:19;;;;;;;11.23;7.03;;;18.30;99.90;;;;;;5073849;28;20240;-88
2021/08/16 06:41:46;;;;;;;14.77;8.85;;;18.40;99.90;;;;;;5069808;28;20252;-87
2021/08/16 06:44:13;;;;;;;11.05;7.88;;;18.40;99.90;;;;;;5071160;28;20615;-87
2021/08/16 06:46:40;;;;;;;13.63;7.43;;;18.50;99.90;;;;;;5063847;28;20293;-88
2021/08/16 06:49:07;;;;;;;13.07;7.93;;;18.50;99.90;;;;;;5071328;28;20222;-88
2021/08/16 06:51:34;;;;;;;15.65;8.60;;;18.90;99.90;;;;;;5071681;28;20290;-88
2021/08/16 06:54:03;;;;;;;13.07;8.40;;;18.70;99.90;;;;;;5064786;28;20218;-88
2021/08/16 06:56:30;;;;;;;12.52;7.75;;;18.80;99.90;;;;;;5052089;28;20199;-88
2021/08/16 06:58:57;;;;;;;12.15;8.15;;;18.90;99.90;;;;;;5051626;28;20206;-89
2021/08/16 07:01:25;;;;;;;12.23;8.38;;;18.80;99.90;;;;;;5055586;28;20210;-88
2021/08/16 07:03:52;;;;;;;13.63;8.70;;;18.80;99.90;;;;;;5073545;28;20229;-89
2021/08/16 07:06:19;;;;;;;14.15;8.48;;;18.70;99.90;;;;;;5077150;28;20301;-87
2021/08/16 07:08:46;;;;;;;16.50;8.70;;;18.70;99.90;;;;;;5080220;28;20246;-88
2021/08/16 07:11:15;;;;;;;13.15;8.52;;;18.60;99.90;;;;;;5084217;28;20281;-88
2021/08/16 07:13:42;;;;;;;14.57;8.18;;;18.80;99.90;;;;;;5083549;28;20282;-89
2021/08/16 07:16:09;;;;;;;12.00;8.27;;;19.00;99.90;;;;;;5080126;28;20206;-89
2021/08/16 07:18:36;;;;;;;15.45;8.52;;;18.80;99.90;;;;;;5075287;28;20289;-88
2021/08/16 07:21:04;;;;;;;15.95;8.20;;;18.60;99.90;;;;;;5056530;28;20207;-89
2021/08/16 07:23:31;;;;;;;11.95;8.00;;;18.50;99.90;;;;;;5055316;28;20254;-88
2021/08/16 07:25:59;;;;;;;14.32;8.60;;;18.50;99.90;;;;;;5055172;28;20301;-88
2021/08/16 07:28:28;;;;;;;17.38;8.63;;;18.50;99.90;;;;;;5054861;28;20199;-87
2021/08/16 07:30:55;;;;;;;16.20;8.48;;;18.40;99.90;;;;;;5054945;28;20306;-87
2021/08/16 07:33:22;;;;;;;14.63;8.23;;;18.50;99.90;;;;;;5054729;28;20302;-88
2021/08/16 07:35:49;;;;;;;13.60;8.05;;;18.20;99.90;;;;;;5054925;28;20207;-88
2021/08/16 07:38:16;;;;;;;13.00;8.07;;;18.40;99.90;;;;;;5055150;28;20214;-89
2021/08/16 07:40:43;;;;;;;12.48;8.48;;;18.40;99.90;;;;;;5054785;28;20203;-88
2021/08/16 07:43:10;;;;;;;12.73;7.75;;;18.40;99.90;;;;;;5055201;28;20692;-88
2021/08/16 07:45:39;;;;;;;16.13;8.57;;;18.40;99.90;;;;;;5054773;28;20295;-88
2021/08/16 07:48:06;;;;;;;12.13;7.72;;;18.30;99.90;;;;;;5054899;28;20209;-88
2021/08/16 07:50:33;;;;;;;15.10;8.45;;;18.40;99.90;;;;;;5054264;28;20231;-88
2021/08/16 07:53:00;;;;;;;15.48;8.07;;;18.50;99.90;;;;;;5055484;28;20309;-87
2021/08/16 07:55:27;;;;;;;12.98;7.85;;;18.50;99.90;;;;;;5074599;28;20206;-87
2021/08/16 07:57:54;;;;;;;15.18;8.52;;;18.70;99.90;;;;;;5074432;28;20702;-87
2021/08/16 08:00:24;;;;;;;10.68;6.70;;;18.60;99.90;;;;;;5074632;28;20225;-87
2021/08/16 08:02:53;;;;;;;12.07;7.32;;;18.70;99.90;;;;;;5074392;28;20241;-87
2021/08/16 08:05:21;;;;;;;11.50;6.85;;;18.60;99.90;;;;;;5074513;28;20206;-88
2021/08/16 08:07:48;;;;;;;12.70;7.32;;;18.60;99.90;;;;;;5074721;28;20217;-88
2021/08/16 08:10:17;;;;;;;11.82;6.97;;;18.60;99.90;;;;;;5074223;28;20703;-87
2021/08/16 08:12:47;;;;;;;13.15;7.35;;;18.90;99.90;;;;;;5073746;28;20285;-88
2021/08/16 08:15:15;;;;;;;12.50;7.53;;;18.90;99.90;;;;;;5074435;28;20656;-88
2021/08/16 08:17:42;;;;;;;11.93;6.75;;;19.20;99.90;;;;;;5074379;28;20557;-88
2021/08/16 08:20:11;;;;;;;12.05;7.15;;;19.30;99.90;;;;;;5073875;28;20297;-88
2021/08/16 08:22:39;;;;;;;14.98;8.00;;;19.40;99.90;;;;;;5074141;28;20234;-88
2021/08/16 08:25:07;;;;;;;11.63;7.05;;;19.20;99.90;;;;;;5074017;28;20226;-87
2021/08/16 08:27:34;;;;;;;16.10;7.95;;;19.10;99.90;;;;;;5073869;28;20202;-88
2021/08/16 08:30:01;;;;;;;14.40;7.22;;;19.20;99.90;;;;;;5074005;28;20230;-88
2021/08/16 08:32:27;;;;;;;10.93;7.05;;;19.20;99.90;;;;;;5072884;28;20224;-87
2021/08/16 08:34:54;;;;;;;15.27;7.72;;;19.10;99.90;;;;;;5072141;28;20229;-88
2021/08/16 08:37:22;;;;;;;12.85;7.93;;;19.10;99.90;;;;;;5071441;28;20206;-88
2021/08/16 08:39:49;;;;;;;9.88;7.03;;;19.10;99.90;;;;;;5066176;28;20294;-87
2021/08/16 08:42:16;;;;;;;13.32;7.43;;;19.30;99.90;;;;;;5080183;28;20216;-88
2021/08/16 08:44:45;;;;;;;15.48;7.30;;;19.40;99.90;;;;;;5093832;28;20217;-88
2021/08/16 08:47:13;;;;;;;11.15;6.90;;;19.40;99.90;;;;;;5086349;28;20596;-88
2021/08/16 08:49:41;;;;;;;13.45;7.15;;;19.60;99.90;;;;;;5073421;28;20257;-88
2021/08/16 08:52:09;;;;;;;11.50;6.65;;;19.90;99.90;;;;;;5078432;28;20667;-88
2021/08/16 08:54:37;;;;;;;14.45;7.57;;;19.90;99.90;;;;;;5078639;28;20285;-88
2021/08/16 08:57:05;;;;;;;9.80;7.10;;;19.80;99.90;;;;;;5071392;28;20237;-88
2021/08/16 08:59:33;;;;;;;12.75;7.20;;;19.80;99.90;;;;;;5072247;28;20237;-87
2021/08/16 09:02:02;;;;;;;11.98;6.80;;;19.90;99.90;;;;;;5073271;28;20213;-87
2021/08/16 09:04:31;;;;;;;13.02;7.85;;;19.60;99.90;;;;;;5072551;28;20213;-88
2021/08/16 09:06:59;;;;;;;12.32;7.00;;;19.70;99.90;;;;;;5073364;28;20289;-88
2021/08/16 09:09:26;;;;;;;12.05;7.05;;;19.90;99.90;;;;;;5072376;28;20202;-88
2021/08/16 09:11:54;;;;;;;13.27;7.22;;;20.00;99.90;;;;;;5071951;28;20574;-88
2021/08/16 09:14:21;;;;;;;12.05;6.88;;;20.50;99.90;;;;;;5080627;28;20297;-88
2021/08/16 09:16:49;;;;;;;12.38;6.57;;;21.00;99.90;;;;;;5070550;28;20210;-88
2021/08/16 09:19:19;;;;;;;10.90;6.20;;;20.90;99.90;;;;;;5066959;28;20205;-88
2021/08/16 09:21:52;;;;;;;9.43;6.50;;;20.90;99.90;;;;;;5071864;28;20664;-88
2021/08/16 09:24:24;;;;;;;15.25;7.20;;;20.40;99.90;;;;;;5072368;28;20238;-88
2021/08/16 09:26:51;;;;;;;12.65;6.65;;;20.60;99.90;;;;;;5072810;28;20240;-89
2021/08/16 09:29:21;;;;;;;13.25;6.25;;;20.50;99.90;;;;;;5071822;28;20202;-88
2021/08/16 09:31:57;;;;;;;11.70;6.68;;;20.50;99.90;;;;;;5071383;28;20226;-88
2021/08/16 09:34:31;;;;;;;11.60;6.15;;;20.40;99.90;;;;;;5070965;28;20222;-88
2021/08/16 09:37:02;;;;;;;11.32;5.55;;;20.20;99.90;;;;;;5071390;28;20193;-88
2021/08/16 09:39:31;;;;;;;11.18;5.97;;;20.30;99.90;;;;;;5089574;28;20247;-87
2021/08/16 09:41:59;;;;;;;11.52;6.35;;;20.20;99.90;;;;;;5091383;28;20940;-88
2021/08/16 09:44:28;;;;;;;11.75;6.43;;;20.00;99.90;;;;;;5092080;28;20623;-88
2021/08/16 09:47:02;;;;;;;12.05;6.18;;;20.10;99.90;;;;;;5092901;28;20220;-88
2021/08/16 09:49:30;;;;;;;8.70;5.57;;;20.00;99.90;;;;;;5081385;28;20710;-87
2021/08/16 09:52:05;;;;;;;10.38;5.65;;;20.10;99.90;;;;;;5072049;28;20688;-88
2021/08/16 09:54:33;;;;;;;11.63;6.47;;;20.20;99.90;;;;;;5071608;28;20637;-87
2021/08/16 09:57:02;;;;;;;10.23;5.50;;;20.20;99.90;;;;;;5072398;28;20201;-88
2021/08/16 09:59:31;;;;;;;7.78;5.20;;;20.00;99.90;;;;;;5081197;28;20202;-87
2021/08/16 10:01:58;;;;;;;8.35;5.43;;;20.10;99.90;;;;;;5092411;28;20198;-89
2021/08/16 10:04:26;;;;;;;11.32;6.07;;;20.00;99.90;;;;;;5092991;28;20689;-88
2021/08/16 10:06:55;;;;;;;11.27;6.15;;;20.20;99.90;;;;;;5078800;28;20668;-88
2021/08/16 10:09:24;;;;;;;12.07;6.10;;;20.20;99.90;;;;;;5071561;28;20202;-88
2021/08/16 10:11:52;;;;;;;9.88;5.68;;;20.40;99.90;;;;;;5067336;28;20221;-87
2021/08/16 10:14:21;;;;;;;7.78;4.85;;;20.50;99.90;;;;;;5061663;28;20226;-87
2021/08/16 10:16:53;;;;;;;6.60;4.88;;;20.60;99.90;;;;;;5071737;28;20202;-89
2021/08/16 10:19:24;;;;;;;8.10;4.85;;;20.80;99.90;;;;;;5077713;28;20679;-88
2021/08/16 10:21:52;;;;;;;7.35;4.55;;;20.60;99.90;;;;;;5069969;28;20699;-88
2021/08/16 10:24:21;;;;;;;8.40;4.82;;;20.60;99.90;;;;;;5069953;28;20222;-87
2021/08/16 10:27:00;;;;;;;9.50;5.40;;;20.70;99.90;;;;;;5071770;28;20198;-87
2021/08/16 10:29:28;;;;;;;10.75;4.95;;;20.30;99.90;;;;;;5071491;28;20229;-87
2021/08/16 10:31:57;;;;;;;8.80;5.07;;;20.60;99.90;;;;;;5072161;28;20229;-87
2021/08/16 10:34:28;;;;;;;7.03;4.90;;;20.60;99.90;;;;;;5071633;28;20229;-87
2021/08/16 10:36:57;;;;;;;9.52;5.43;;;20.50;99.90;;;;;;5075381;28;20694;-88
2021/08/16 10:39:34;;;;;;;9.25;5.85;;;20.30;99.90;;;;;;5075773;28;20214;-87
2021/08/16 10:42:12;;;;;;;10.60;5.90;;;20.20;99.90;;;;;;5075880;28;20206;-87
2021/08/16 10:44:42;;;;;;;12.65;6.20;;;20.20;99.90;;;;;;5076281;28;20578;-88
2021/08/16 10:47:12;;;;;;;7.25;5.10;;;20.10;99.90;;;;;;5092290;28;20205;-88
2021/08/16 10:49:41;;;;;;;9.05;5.57;;;20.20;99.90;;;;;;5080883;28;20581;-88
2021/08/16 10:52:21;;;;;;;9.00;5.63;;;20.00;99.90;;;;;;5075618;28;20319;-88
2021/08/16 10:54:48;;;;;;;9.35;5.05;;;19.80;99.90;;;;;;5091182;28;20209;-88
2021/08/16 10:57:15;;;;;;;10.65;5.75;;;19.60;99.90;;;;;;5095943;28;20193;-88
2021/08/16 10:59:42;;;;;;;9.07;5.45;;;19.90;99.90;;;;;;5082606;28;20584;-88
2021/08/16 11:02:09;;;;;;;10.43;6.28;;;19.60;99.90;;;;;;5075683;28;20288;-88
2021/08/16 11:04:40;;;;;;;9.32;6.07;;;19.80;99.90;;;;;;5075178;28;20297;-87
2021/08/16 11:07:08;;;;;;;13.27;6.80;;;20.00;99.90;;;;;;5075985;28;20204;-88
2021/08/16 11:09:36;;;;;;;8.73;5.93;;;19.70;99.90;;;;;;5074914;28;20285;-88
2021/08/16 11:12:06;;;;;;;9.48;6.03;;;19.90;99.90;;;;;;5074216;28;20237;-87
2021/08/16 11:14:34;;;;;;;11.43;6.38;;;19.90;99.90;;;;;;5074759;28;20289;-87
2021/08/16 11:17:01;;;;;;;13.05;6.97;;;19.90;99.90;;;;;;5075435;28;20203;-88
2021/08/16 11:19:42;;;;;;;13.10;7.13;;;19.80;99.90;;;;;;5074883;28;20210;-88
2021/08/16 11:22:09;;;;;;;11.68;6.35;;;19.40;99.90;;;;;;5070632;28;20198;-87
2021/08/16 11:24:38;;;;;;;8.85;7.07;;;19.00;99.90;;;;;;5077767;28;20210;-88
2021/08/16 11:27:06;;;;;;;13.68;7.80;;;18.80;99.90;;;;;;5095586;28;20316;-88
2021/08/16 11:29:34;;;;;;;11.95;7.97;;;18.50;99.90;;;;;;5094186;28;20200;-88
2021/08/16 11:32:02;;;;;;;10.23;7.65;;;18.50;99.90;;;;;;5094585;28;20229;-88
2021/08/16 11:34:31;;;;;;;10.80;7.72;;;18.30;99.90;;;;;;5094011;28;20209;-88
2021/08/16 11:37:00;;;;;;;9.77;7.20;;;18.50;99.90;;;;;;5094657;28;20194;-88
2021/08/16 11:39:31;;;;;;;9.93;7.22;;;18.50;99.90;;;;;;5094634;28;20288;-87
2021/08/16 11:42:00;;;;;;;10.68;7.25;;;18.50;99.90;;;;;;5093765;28;20202;-88
2021/08/16 11:44:28;;;;;;;14.32;6.80;;;18.70;99.90;;;;;;5094953;28;20233;-87
2021/08/16 11:46:57;;;;;;;9.57;6.90;;;18.90;99.90;;;;;;5093869;28;20217;-88
2021/08/16 11:49:26;;;;;;;11.38;7.32;;;18.90;99.90;;;;;;5094095;28;20213;-87
2021/08/16 11:51:54;;;;;;;11.95;8.82;;;18.80;99.90;;;;;;5094502;28;20308;-88
2021/08/16 11:54:28;;;;;;;7.22;3.70;;;18.50;99.90;;;;;;5075825;28;20305;-87
2021/08/16 11:56:57;;;;;;;3.00;2.63;;;16.50;99.90;;;;;;5074291;28;20216;-86
2021/08/16 11:59:24;;;;;;;5.45;2.97;;;15.70;99.90;;;;;;5072568;28;20205;-86
2021/08/16 12:01:52;;;;;;;4.43;2.87;;;15.80;99.90;;;;;;5071284;28;20389;-86
2021/08/16 12:04:21;;;;;;;5.57;2.90;;;15.90;99.90;;;;;;5070725;28;20222;-87
2021/08/16 12:06:49;;;;;;;5.63;2.90;;;15.70;99.90;;;;;;5070622;28;20205;-86
2021/08/16 12:09:17;;;;;;;4.23;3.27;;;15.70;99.90;;;;;;5068847;28;20210;-86
2021/08/16 12:11:58;;;;;;;3.83;2.97;;;15.90;99.90;;;;;;5070927;28;20230;-86
2021/08/16 12:14:28;;;;;;;5.33;3.20;;;15.80;99.90;;;;;;5073043;28;20234;-87
2021/08/16 12:16:55;;;;;;;5.80;2.93;;;15.70;99.90;;;;;;5072045;28;20214;-87
2021/08/16 12:19:24;;;;;;;5.77;3.13;;;15.60;99.90;;;;;;5069492;28;20206;-87
2021/08/16 12:22:05;;;;;;;5.83;3.03;;;15.60;99.90;;;;;;5084367;28;20296;-87
2021/08/16 12:24:32;;;;;;;4.33;3.27;;;15.50;99.90;;;;;;5075426;28;20210;-88
2021/08/16 12:27:02;;;;;;;6.00;3.70;;;15.70;99.90;;;;;;5072717;28;20678;-88
2021/08/16 12:29:29;;;;;;;7.60;4.37;;;15.50;99.90;;;;;;5100621;22;20225;-72
2021/08/16 12:31:56;;;;;;;4.43;3.97;;;15.50;99.90;;;;;;5061322;28;20229;-72
2021/08/16 12:34:34;;;;;;;6.57;4.03;;;15.50;99.90;;;;;;5061912;28;20211;-72
2021/08/16 12:37:01;;;;;;;6.03;3.90;;;15.50;99.90;;;;;;5057215;28;20696;-72
2021/08/16 12:39:33;;;;;;;6.33;4.00;;;15.50;99.90;;;;;;5065686;28;20226;-73
2021/08/16 12:42:09;;;;;;;6.00;4.03;;;15.60;99.90;;;;;;5069402;28;20640;-73
2021/08/16 12:44:38;;;;;;;5.33;3.60;;;15.50;99.90;;;;;;5056664;28;20211;-72